Archer, Wyoming
Current Conditions -  °F | °C
As of 3:53 AM on Saturday 22 Nov 2014 (Local Time) from KCYS Reporting Station
Clear Clear  
Wind Chill: -5°   Ceiling: Unl
Heat Index: -1°   Visibility: 10mi
Dew Point: -10°   Wind: 8mph
Humidity: 51%   Direction: 290°WNW
Pressure: 29.83"   Gusts: NA
Location:  41.4091°N, 104.861°W
Report Text: KCYS 221053Z AUTO 29007KT 10SM CLR M01/M10 A2983 RMK AO2 SLP092 T10111100
Loading
Personal Weather Stations






























Interactive Weather Map New forecast layout! Learn more

10-Day Weather Forecast

Advertisements
Track Severe Weather on mobile